createdAt,value
2022-11-02T00:01:56.179Z,0.50
2022-11-02T00:04:23.417Z,0.50
2022-11-02T00:06:52.948Z,0.60
2022-11-02T00:09:20.022Z,0.50
2022-11-02T00:11:46.931Z,0.50
2022-11-02T00:14:14.040Z,0.50
2022-11-02T00:16:41.393Z,0.55
2022-11-02T00:19:09.765Z,0.47
2022-11-02T00:21:40.106Z,0.40
2022-11-02T00:24:09.089Z,0.63
2022-11-02T00:26:36.828Z,0.60
2022-11-02T00:29:08.594Z,1.05
2022-11-02T00:31:37.845Z,1.27
2022-11-02T00:34:04.758Z,1.05
2022-11-02T00:36:31.878Z,1.13
2022-11-02T00:38:59.363Z,0.57
2022-11-02T00:41:27.909Z,0.85
2022-11-02T00:43:58.017Z,0.40
2022-11-02T00:46:25.094Z,0.52
2022-11-02T00:48:52.082Z,0.47
2022-11-02T00:51:19.318Z,0.40
2022-11-02T00:53:46.399Z,0.40
2022-11-02T00:56:13.836Z,0.50
2022-11-02T00:58:48.250Z,0.40
2022-11-02T01:01:16.061Z,0.40
2022-11-02T01:03:46.950Z,0.30
2022-11-02T01:06:15.863Z,0.30
2022-11-02T01:08:43.130Z,0.30
2022-11-02T01:11:19.354Z,0.30
2022-11-02T01:13:46.508Z,0.38
2022-11-02T01:16:14.830Z,0.20
2022-11-02T01:18:42.168Z,0.38
2022-11-02T01:21:11.620Z,0.20
2022-11-02T01:23:44.863Z,0.47
2022-11-02T01:26:12.074Z,0.38
2022-11-02T01:28:41.828Z,0.63
2022-11-02T01:31:10.096Z,0.50
2022-11-02T01:33:37.964Z,0.95
2022-11-02T01:36:11.553Z,0.68
2022-11-02T01:41:10.462Z,0.38
2022-11-02T01:43:39.351Z,0.30
2022-11-02T01:46:12.562Z,0.50
2022-11-02T01:49:01.066Z,0.50
2022-11-02T01:51:33.477Z,1.55
2022-11-02T01:54:12.147Z,0.50
2022-11-02T01:56:41.032Z,0.47
2022-11-02T01:59:14.985Z,0.30
2022-11-02T02:01:42.240Z,0.32
2022-11-02T02:04:12.708Z,0.28
2022-11-02T02:06:41.020Z,0.30
2022-11-02T02:09:09.125Z,0.20
2022-11-02T02:11:42.683Z,0.40
2022-11-02T02:14:15.917Z,0.40
2022-11-02T02:16:54.464Z,0.40
2022-11-02T02:19:55.771Z,0.20
2022-11-02T02:22:40.878Z,0.20
2022-11-02T02:25:45.437Z,0.28
2022-11-02T02:28:42.730Z,0.30
2022-11-02T02:31:31.681Z,0.25
2022-11-02T02:34:15.682Z,0.30
2022-11-02T02:37:03.968Z,0.20
2022-11-02T02:39:52.249Z,0.47
2022-11-02T02:42:30.415Z,0.20
2022-11-02T02:45:37.910Z,0.63
2022-11-02T02:48:32.855Z,0.28
2022-11-02T02:51:05.876Z,0.10
2022-11-02T02:54:01.250Z,0.10
2022-11-02T02:56:31.875Z,0.20
2022-11-02T02:59:03.251Z,0.10
2022-11-02T03:01:32.383Z,0.05
2022-11-02T03:04:02.649Z,0.10
2022-11-02T03:06:39.746Z,0.45
2022-11-02T03:09:33.608Z,0.10
2022-11-02T03:12:20.929Z,0.50
2022-11-02T03:15:18.514Z,0.20
2022-11-02T03:18:06.908Z,0.20
2022-11-02T03:20:47.298Z,0.30
2022-11-02T03:23:38.737Z,0.20
2022-11-02T03:26:15.030Z,0.20
2022-11-02T03:29:09.129Z,0.20
2022-11-02T03:31:59.674Z,0.20
2022-11-02T03:35:00.176Z,0.20
2022-11-02T03:37:41.893Z,0.43
2022-11-02T03:40:16.948Z,0.63
2022-11-02T03:42:47.916Z,0.10
2022-11-02T03:45:20.207Z,0.35
2022-11-02T03:47:54.080Z,0.43
2022-11-02T03:50:23.407Z,0.30
2022-11-02T03:52:57.535Z,0.30
2022-11-02T03:55:33.227Z,0.30
2022-11-02T03:58:00.887Z,0.30
2022-11-02T04:00:34.901Z,0.32
2022-11-02T04:03:07.364Z,0.30
2022-11-02T04:05:41.899Z,0.38
2022-11-02T04:08:22.426Z,0.15
2022-11-02T04:11:11.995Z,0.30
2022-11-02T04:13:59.350Z,0.30
2022-11-02T04:16:29.293Z,0.73
2022-11-02T04:19:21.806Z,0.50
2022-11-02T04:22:08.440Z,0.40
2022-11-02T04:24:57.054Z,0.40
2022-11-02T04:27:25.086Z,0.50
2022-11-02T04:29:53.055Z,0.90
2022-11-02T04:32:40.950Z,0.43
2022-11-02T04:35:13.014Z,0.50
2022-11-02T04:38:02.753Z,1.20
2022-11-02T04:40:34.543Z,0.30
2022-11-02T04:43:03.723Z,0.60
2022-11-02T04:45:31.636Z,0.75
2022-11-02T04:48:07.685Z,0.40
2022-11-02T04:50:36.426Z,0.70
2022-11-02T04:53:08.703Z,0.40
2022-11-02T04:55:39.810Z,0.60
2022-11-02T04:58:07.722Z,0.50
2022-11-02T05:00:36.271Z,0.75
2022-11-02T05:03:09.594Z,0.55
2022-11-02T05:05:42.027Z,0.65
2022-11-02T05:08:09.304Z,0.80
2022-11-02T05:10:38.713Z,0.38
2022-11-02T05:13:06.838Z,0.50
2022-11-02T05:15:40.340Z,0.93
2022-11-02T05:18:08.406Z,0.73
2022-11-02T05:20:39.411Z,1.45
2022-11-02T05:23:07.022Z,1.00
2022-11-02T05:25:34.602Z,0.93
2022-11-02T05:28:01.557Z,0.90
2022-11-02T05:30:28.610Z,0.88
2022-11-02T05:32:57.639Z,0.88
2022-11-02T05:35:27.995Z,1.00
2022-11-02T05:37:56.198Z,1.05
2022-11-02T05:40:23.454Z,1.15
2022-11-02T05:42:50.447Z,0.65
2022-11-02T05:45:21.993Z,0.70
2022-11-02T05:47:50.626Z,1.13
2022-11-02T05:50:17.594Z,0.73
2022-11-02T05:52:45.878Z,0.77
2022-11-02T05:55:13.378Z,0.63
2022-11-02T05:57:43.612Z,0.60
2022-11-02T06:00:11.999Z,1.58
2022-11-02T06:02:41.764Z,0.65
2022-11-02T06:05:11.487Z,0.80
2022-11-02T06:07:38.846Z,0.70
2022-11-02T06:10:06.847Z,1.55
2022-11-02T06:12:34.071Z,0.85
2022-11-02T06:15:02.395Z,1.05
2022-11-02T06:17:29.679Z,1.00
2022-11-02T06:19:59.358Z,1.10
2022-11-02T06:22:28.922Z,0.95
2022-11-02T06:24:55.898Z,1.42
2022-11-02T06:27:22.885Z,2.03
2022-11-02T06:29:51.017Z,0.80
2022-11-02T06:32:21.100Z,0.88
2022-11-02T06:34:51.332Z,1.13
2022-11-02T06:37:19.792Z,0.88
2022-11-02T06:39:48.217Z,1.48
2022-11-02T06:42:15.821Z,0.80
2022-11-02T06:44:42.847Z,1.20
2022-11-02T06:47:09.815Z,1.35
2022-11-02T06:49:36.686Z,1.17
2022-11-02T06:52:03.792Z,1.13
2022-11-02T06:54:30.675Z,1.17
2022-11-02T06:57:02.053Z,1.05
2022-11-02T06:59:28.985Z,0.95
2022-11-02T07:01:56.083Z,0.80
2022-11-02T07:04:23.279Z,0.75
2022-11-02T07:06:50.336Z,1.08
2022-11-02T07:09:17.560Z,0.60
2022-11-02T07:11:47.524Z,0.80
2022-11-02T07:14:14.537Z,0.80
2022-11-02T07:16:41.601Z,0.80
2022-11-02T07:19:11.399Z,0.85
2022-11-02T07:21:43.733Z,0.80
2022-11-02T07:24:13.850Z,0.40
2022-11-02T07:26:40.800Z,0.70
2022-11-02T07:29:12.147Z,0.70
2022-11-02T07:31:42.603Z,0.65
2022-11-02T07:34:14.082Z,0.80
2022-11-02T07:36:46.345Z,0.70
2022-11-02T07:39:13.392Z,0.82
2022-11-02T07:41:40.612Z,0.90
2022-11-02T07:44:10.060Z,0.95
2022-11-02T07:46:55.442Z,0.80
2022-11-02T07:49:23.499Z,1.10
2022-11-02T07:51:50.647Z,1.40
2022-11-02T07:54:17.685Z,0.90
2022-11-02T07:56:50.037Z,1.33
2022-11-02T07:59:17.095Z,0.70
2022-11-02T08:01:44.106Z,0.90
2022-11-02T08:04:11.571Z,0.93
2022-11-02T08:06:41.058Z,0.70
2022-11-02T08:09:10.645Z,0.80
2022-11-02T08:11:37.803Z,0.80
2022-11-02T08:14:11.152Z,0.50
2022-11-02T08:16:40.732Z,0.98
2022-11-02T08:19:10.398Z,0.40
2022-11-02T08:21:37.460Z,0.70
2022-11-02T08:24:10.824Z,0.93
2022-11-02T08:26:41.037Z,1.17
2022-11-02T08:29:11.355Z,0.80
2022-11-02T08:31:40.666Z,1.15
2022-11-02T08:34:09.617Z,0.65
2022-11-02T08:36:41.406Z,0.63
2022-11-02T08:39:15.991Z,0.60
2022-11-02T08:41:48.520Z,0.80
2022-11-02T08:44:15.501Z,1.10
2022-11-02T08:46:42.563Z,1.35
2022-11-02T08:49:09.766Z,1.10
2022-11-02T08:51:36.850Z,1.95
2022-11-02T08:54:09.238Z,0.70
2022-11-02T08:56:36.276Z,1.27
2022-11-02T08:59:03.515Z,1.33
2022-11-02T09:01:30.690Z,0.85
2022-11-02T09:03:59.028Z,0.75
2022-11-02T09:06:30.968Z,1.15
2022-11-02T09:08:59.132Z,0.90
2022-11-02T09:11:26.810Z,0.60
2022-11-02T09:13:56.805Z,0.82
2022-11-02T09:16:24.335Z,1.10
2022-11-02T09:18:51.524Z,0.93
2022-11-02T09:21:18.739Z,0.93
2022-11-02T09:23:48.503Z,0.70
2022-11-02T09:26:20.607Z,1.13
2022-11-02T09:28:47.652Z,1.00
2022-11-02T09:31:14.587Z,1.08
2022-11-02T09:33:42.342Z,1.17
2022-11-02T09:36:12.474Z,1.20
2022-11-02T09:38:42.737Z,0.90
2022-11-02T09:41:42.970Z,0.95
2022-11-02T09:44:22.217Z,1.40
2022-11-02T09:47:17.760Z,0.70
2022-11-02T09:49:37.184Z,0.55
2022-11-02T09:52:04.987Z,0.80
2022-11-02T09:54:36.555Z,0.85
2022-11-02T09:57:31.868Z,1.00
2022-11-02T10:00:01.888Z,1.70
2022-11-02T10:02:44.848Z,0.85
2022-11-02T10:05:26.828Z,0.43
2022-11-02T10:07:59.404Z,0.75
2022-11-02T10:13:28.268Z,0.70
2022-11-02T10:16:00.324Z,1.52
2022-11-02T10:18:33.948Z,1.73
2022-11-02T10:21:12.228Z,0.50
2022-11-02T10:23:42.647Z,0.65
2022-11-02T10:26:19.225Z,0.73
2022-11-02T10:28:50.005Z,1.05
2022-11-02T10:31:34.077Z,0.60
2022-11-02T10:34:22.686Z,0.50
2022-11-02T10:37:13.732Z,0.47
2022-11-02T10:39:51.125Z,0.55
2022-11-02T10:42:52.368Z,0.50
2022-11-02T10:45:22.191Z,0.50
2022-11-02T10:47:58.044Z,1.10
2022-11-02T10:50:48.920Z,0.50
2022-11-02T10:53:40.564Z,0.70
2022-11-02T10:56:18.994Z,0.60
2022-11-02T10:58:59.968Z,0.70
2022-11-02T11:01:30.553Z,0.88
2022-11-02T11:04:02.527Z,0.90
2022-11-02T11:06:43.668Z,1.08
2022-11-02T11:09:32.016Z,0.93
2022-11-02T11:12:22.796Z,0.70
2022-11-02T11:20:42.792Z,0.77
2022-11-02T11:23:21.503Z,1.02
2022-11-02T11:26:00.614Z,0.60
2022-11-02T11:28:40.472Z,0.60
2022-11-02T11:31:19.745Z,0.90
2022-11-02T11:34:01.293Z,0.70
2022-11-02T11:36:30.718Z,1.02
2022-11-02T11:39:02.605Z,0.80
2022-11-02T11:41:32.227Z,0.57
2022-11-02T11:44:00.399Z,0.77
2022-11-02T11:46:44.669Z,1.13
2022-11-02T11:52:24.512Z,0.73
2022-11-02T11:54:58.993Z,1.15
2022-11-02T11:57:34.570Z,0.80
2022-11-02T12:00:22.543Z,0.60
2022-11-02T12:03:06.217Z,0.60
2022-11-02T12:06:15.617Z,0.85
2022-11-02T12:09:12.848Z,0.57
2022-11-02T12:12:06.763Z,0.80
2022-11-02T12:14:44.087Z,0.60
2022-11-02T12:17:22.281Z,1.02
2022-11-02T12:20:06.544Z,0.70
2022-11-02T12:22:51.649Z,0.85
2022-11-02T12:26:01.615Z,1.05
2022-11-02T12:29:21.134Z,1.15
2022-11-02T12:32:17.167Z,0.63
2022-11-02T12:34:46.520Z,1.42
2022-11-02T12:37:51.732Z,0.65
2022-11-02T12:41:00.806Z,0.57
2022-11-02T12:43:53.977Z,0.38
2022-11-02T12:46:47.622Z,0.50
2022-11-02T12:49:36.532Z,0.40
2022-11-02T12:52:32.579Z,0.47
2022-11-02T12:55:03.148Z,0.60
2022-11-02T12:57:37.134Z,0.55
2022-11-02T13:00:21.998Z,0.40
2022-11-02T13:03:07.313Z,0.40
2022-11-02T13:05:51.578Z,0.60
2022-11-02T13:08:29.012Z,0.40
2022-11-02T13:11:05.439Z,0.75
2022-11-02T13:13:50.711Z,0.40
2022-11-02T13:16:31.328Z,0.30
2022-11-02T13:19:00.640Z,0.30
2022-11-02T13:21:50.963Z,0.30
2022-11-02T13:24:31.764Z,0.30
2022-11-02T13:29:58.079Z,0.45
2022-11-02T13:32:34.620Z,0.32
2022-11-02T13:35:27.387Z,0.40
2022-11-02T13:38:10.317Z,0.38
2022-11-02T13:40:42.831Z,0.40
2022-11-02T13:45:52.504Z,0.65
2022-11-02T13:48:42.377Z,0.40
2022-11-02T13:51:34.730Z,0.90
2022-11-02T13:54:23.241Z,0.70
2022-11-02T13:57:03.345Z,0.47
2022-11-02T13:59:36.766Z,0.60
2022-11-02T14:02:12.687Z,0.40
2022-11-02T14:04:44.840Z,0.43
2022-11-02T14:07:24.999Z,0.35
2022-11-02T14:10:13.764Z,0.30
2022-11-02T14:12:48.449Z,0.45
2022-11-02T14:18:13.705Z,0.30
2022-11-02T14:23:12.795Z,0.40
2022-11-02T14:25:45.993Z,0.60
2022-11-02T14:28:25.869Z,0.40
2022-11-02T14:31:05.142Z,0.60
2022-11-02T14:33:34.499Z,0.50
2022-11-02T14:36:32.053Z,0.63
2022-11-02T14:39:53.765Z,0.57
2022-11-02T14:42:42.609Z,0.38
2022-11-02T14:45:25.700Z,0.40
2022-11-02T14:50:33.970Z,0.30
2022-11-02T14:53:10.326Z,0.20
2022-11-02T14:55:43.344Z,0.47
2022-11-02T14:58:22.966Z,0.30
2022-11-02T15:00:51.368Z,0.30
2022-11-02T15:03:24.430Z,0.30
2022-11-02T15:06:13.486Z,0.50
2022-11-02T15:08:59.642Z,0.40
2022-11-02T15:11:47.674Z,0.30
2022-11-02T15:14:36.471Z,0.47
2022-11-02T15:17:26.176Z,0.30
2022-11-02T15:20:15.977Z,0.40
2022-11-02T15:22:57.390Z,0.60
2022-11-02T15:25:35.254Z,0.40
2022-11-02T15:28:28.433Z,0.20
2022-11-02T15:31:26.342Z,0.40
2022-11-02T15:34:07.297Z,0.25
2022-11-02T15:36:45.666Z,0.50
2022-11-02T15:39:37.994Z,0.52
2022-11-02T15:42:27.320Z,0.35
2022-11-02T15:45:42.174Z,0.30
2022-11-02T15:48:39.780Z,0.30
2022-11-02T15:52:00.712Z,0.30
2022-11-02T15:54:45.798Z,0.47
2022-11-02T15:57:42.282Z,0.20
2022-11-02T16:00:30.478Z,0.40
2022-11-02T16:03:04.084Z,0.20
2022-11-02T16:05:43.443Z,0.20
2022-11-02T16:08:44.505Z,0.20
2022-11-02T16:11:31.972Z,0.20
2022-11-02T16:14:19.724Z,0.35
2022-11-02T16:17:47.914Z,0.20
2022-11-02T16:20:08.096Z,0.20
2022-11-02T16:22:38.555Z,0.20
2022-11-02T16:25:14.339Z,0.20
2022-11-02T16:27:43.828Z,0.20
2022-11-02T16:30:22.469Z,0.20
2022-11-02T16:33:00.819Z,0.25
2022-11-02T16:35:33.162Z,0.20
2022-11-02T16:38:07.565Z,0.30
2022-11-02T16:40:36.268Z,0.20
2022-11-02T16:43:03.283Z,0.30
2022-11-02T16:45:43.318Z,0.20
2022-11-02T16:48:21.671Z,0.57
2022-11-02T16:51:20.229Z,0.20
2022-11-02T16:53:47.232Z,0.35
2022-11-02T16:56:32.319Z,0.40
2022-11-02T16:59:03.836Z,0.30
2022-11-02T17:01:41.510Z,0.55
2022-11-02T17:04:26.554Z,0.10
2022-11-02T17:06:57.139Z,0.32
2022-11-02T17:09:33.076Z,0.17
2022-11-02T17:12:06.766Z,0.20
2022-11-02T17:14:33.806Z,0.60
2022-11-02T17:17:22.778Z,0.30
2022-11-02T17:20:14.385Z,0.28
2022-11-02T17:23:03.654Z,0.45
2022-11-02T17:25:35.988Z,0.20
2022-11-02T17:28:35.186Z,0.73
2022-11-02T17:31:03.465Z,0.32
2022-11-02T17:33:37.014Z,0.45
2022-11-02T17:36:11.956Z,0.25
2022-11-02T17:41:34.572Z,0.30
2022-11-02T17:44:02.266Z,0.32
2022-11-02T17:46:29.777Z,0.38
2022-11-02T17:48:57.828Z,0.30
2022-11-02T17:51:28.714Z,0.25
2022-11-02T17:53:55.808Z,0.50
2022-11-02T17:56:22.881Z,0.40
2022-11-02T17:58:49.975Z,0.60
2022-11-02T18:01:18.606Z,0.50
2022-11-02T18:04:06.217Z,0.50
2022-11-02T18:06:33.417Z,0.40
2022-11-02T18:09:22.096Z,0.40
2022-11-02T18:11:52.426Z,0.30
2022-11-02T18:14:35.191Z,0.30
2022-11-02T18:17:04.690Z,0.40
2022-11-02T18:19:47.512Z,0.30
2022-11-02T18:22:15.764Z,0.43
2022-11-02T18:24:52.454Z,0.63
2022-11-02T18:28:19.655Z,0.50
2022-11-02T18:31:54.528Z,0.25
2022-11-02T18:35:04.323Z,0.22
2022-11-02T18:37:34.943Z,0.15
2022-11-02T18:40:05.683Z,0.30
2022-11-02T18:42:43.987Z,0.20
2022-11-02T18:45:13.091Z,0.25
2022-11-02T18:47:52.331Z,0.20
2022-11-02T18:53:21.944Z,0.20
2022-11-02T18:55:51.937Z,0.47
2022-11-02T18:59:43.505Z,0.30
2022-11-02T19:01:50.144Z,0.20
2022-11-02T19:04:20.354Z,0.20
2022-11-02T19:10:47.659Z,0.40
2022-11-02T19:16:35.388Z,0.20
2022-11-02T19:19:32.998Z,0.40
2022-11-02T19:22:05.469Z,0.30
2022-11-02T19:29:27.443Z,0.20
2022-11-02T19:32:02.658Z,0.40
2022-11-02T19:34:38.435Z,0.30
2022-11-02T19:38:07.324Z,0.50
2022-11-02T19:51:08.224Z,0.30
2022-11-02T19:53:51.453Z,0.30
2022-11-02T20:00:11.833Z,0.30
2022-11-02T20:02:38.965Z,0.20
2022-11-02T20:05:10.604Z,0.50
2022-11-02T20:07:37.625Z,0.50
2022-11-02T20:10:04.868Z,0.40
2022-11-02T20:12:34.136Z,0.40
2022-11-02T20:15:03.677Z,0.38
2022-11-02T20:17:38.069Z,0.38
2022-11-02T20:20:12.038Z,0.40
2022-11-02T20:22:49.166Z,0.50
2022-11-02T20:25:23.979Z,0.20
2022-11-02T20:27:51.742Z,0.38
2022-11-02T20:30:19.778Z,0.20
2022-11-02T20:32:57.114Z,0.30
2022-11-02T20:38:51.058Z,0.30
2022-11-02T20:41:24.476Z,0.50
2022-11-02T20:44:17.199Z,0.70
2022-11-02T20:46:53.092Z,0.57
2022-11-02T20:49:48.818Z,0.32
2022-11-02T20:52:22.283Z,0.57
2022-11-02T20:55:12.721Z,0.50
2022-11-02T20:57:42.435Z,0.52
2022-11-02T21:00:13.618Z,0.65
2022-11-02T21:02:43.829Z,0.50
2022-11-02T21:05:11.322Z,0.55
2022-11-02T21:07:42.274Z,0.52
2022-11-02T21:10:11.973Z,0.60
2022-11-02T21:17:25.973Z,0.70
2022-11-02T21:23:17.564Z,0.40
2022-11-02T21:25:57.484Z,0.68
2022-11-02T21:31:08.036Z,0.68
2022-11-02T21:33:47.846Z,0.60
2022-11-02T21:36:53.462Z,0.60
2022-11-02T21:39:20.721Z,0.98
2022-11-02T21:54:42.417Z,0.93
2022-11-02T21:57:28.230Z,0.40
2022-11-02T22:04:34.581Z,0.88
2022-11-02T22:07:22.948Z,0.52
2022-11-02T22:09:55.219Z,0.85
2022-11-02T22:13:38.708Z,0.73
2022-11-02T22:16:22.618Z,0.50
2022-11-02T22:19:00.728Z,0.70
2022-11-02T22:21:32.112Z,0.50
2022-11-02T22:24:02.915Z,0.60
2022-11-02T22:26:34.151Z,0.98
2022-11-02T22:29:04.232Z,0.38
2022-11-02T22:31:37.188Z,0.40
2022-11-02T22:34:10.752Z,0.40
2022-11-02T22:37:04.977Z,0.47
2022-11-02T22:39:36.262Z,0.70
2022-11-02T22:42:04.569Z,0.80
2022-11-02T22:44:31.584Z,0.40
2022-11-02T22:46:58.680Z,0.38
2022-11-02T22:49:25.806Z,0.77
2022-11-02T22:52:04.504Z,0.60
2022-11-02T22:54:40.402Z,0.90
2022-11-02T22:57:07.619Z,0.82
2022-11-02T22:59:34.784Z,0.50
2022-11-02T23:02:01.904Z,0.50
2022-11-02T23:04:28.998Z,1.00
2022-11-02T23:06:56.089Z,0.60
2022-11-02T23:09:23.121Z,0.55
2022-11-02T23:11:50.109Z,0.55
2022-11-02T23:14:17.717Z,0.82
2022-11-02T23:17:03.457Z,0.40
2022-11-02T23:19:30.931Z,0.40
2022-11-02T23:22:26.727Z,0.55
2022-11-02T23:25:11.188Z,0.50
2022-11-02T23:28:03.729Z,0.55
2022-11-02T23:30:52.510Z,0.50
2022-11-02T23:33:20.251Z,0.40
2022-11-02T23:36:08.637Z,0.40
2022-11-02T23:38:54.141Z,0.45
2022-11-02T23:41:23.901Z,0.30
2022-11-02T23:43:50.965Z,0.28
2022-11-02T23:46:18.188Z,0.22
2022-11-02T23:48:49.797Z,0.40
2022-11-02T23:51:38.705Z,0.40
2022-11-02T23:54:24.580Z,0.25
2022-11-02T23:56:51.882Z,0.30
2022-11-02T23:59:19.033Z,0.45
